createdAt,value
2019-02-28T00:00:54.790Z,0.00
2019-02-28T00:01:54.767Z,0.00
2019-02-28T00:02:54.894Z,0.00
2019-02-28T00:03:57.951Z,0.00
2019-02-28T00:04:54.708Z,0.00
2019-02-28T00:05:54.704Z,0.00
2019-02-28T00:06:54.690Z,0.00
2019-02-28T00:07:54.678Z,0.00
2019-02-28T00:08:54.666Z,0.00
2019-02-28T00:09:57.406Z,0.00
2019-02-28T00:10:54.619Z,0.00
2019-02-28T00:11:54.605Z,0.00
2019-02-28T00:12:54.592Z,0.00
2019-02-28T00:13:55.997Z,0.00
2019-02-28T00:14:54.543Z,0.00
2019-02-28T00:15:54.534Z,0.00
2019-02-28T00:16:54.514Z,0.00
2019-02-28T00:17:54.508Z,0.00
2019-02-28T00:18:54.481Z,0.00
2019-02-28T00:19:55.336Z,0.00
2019-02-28T00:20:54.450Z,0.00
2019-02-28T00:21:54.437Z,0.00
2019-02-28T00:22:54.416Z,0.00
2019-02-28T00:23:57.366Z,0.00
2019-02-28T00:24:54.413Z,0.00
2019-02-28T00:25:54.371Z,0.00
2019-02-28T00:26:54.345Z,0.00
2019-02-28T00:27:54.343Z,0.00
2019-02-28T00:28:57.063Z,0.00
2019-02-28T00:29:54.329Z,0.00
2019-02-28T00:30:54.285Z,0.00
2019-02-28T00:31:54.302Z,0.00
2019-02-28T00:32:56.428Z,0.00
2019-02-28T00:33:54.241Z,0.00
2019-02-28T00:34:54.256Z,0.00
2019-02-28T00:35:54.201Z,0.00
2019-02-28T00:36:54.190Z,0.00
2019-02-28T00:37:56.677Z,0.00
2019-02-28T00:38:54.145Z,0.00
2019-02-28T00:39:54.169Z,0.00
2019-02-28T00:40:54.119Z,0.00
2019-02-28T00:41:54.140Z,0.00
2019-02-28T00:42:54.092Z,0.00
2019-02-28T00:43:56.874Z,0.00
2019-02-28T00:44:54.053Z,0.00
2019-02-28T00:45:54.039Z,0.00
2019-02-28T00:46:54.037Z,0.00
2019-02-28T00:47:54.011Z,0.00
2019-02-28T00:48:54.205Z,0.00
2019-02-28T00:49:55.646Z,0.00
2019-02-28T00:50:53.951Z,0.00
2019-02-28T00:51:53.927Z,0.00
2019-02-28T00:52:53.953Z,0.00
2019-02-28T00:53:53.908Z,0.00
2019-02-28T00:54:53.884Z,0.00
2019-02-28T00:55:53.867Z,0.00
2019-02-28T00:56:53.849Z,0.00
2019-02-28T00:57:55.398Z,0.00
2019-02-28T00:58:53.811Z,0.00
2019-02-28T00:59:53.805Z,0.00
2019-02-28T01:00:53.810Z,0.00
2019-02-28T01:01:53.755Z,0.00
2019-02-28T01:02:53.785Z,0.00
2019-02-28T01:03:53.724Z,0.00
2019-02-28T01:04:53.708Z,0.00
2019-02-28T01:05:53.691Z,0.00
2019-02-28T01:06:53.678Z,0.00
2019-02-28T01:07:53.702Z,0.00
2019-02-28T01:08:56.136Z,0.00
2019-02-28T01:09:53.626Z,0.00
2019-02-28T01:10:53.616Z,0.00
2019-02-28T01:11:53.597Z,0.00
2019-02-28T01:12:54.628Z,0.00
2019-02-28T01:13:53.573Z,0.00
2019-02-28T01:14:53.544Z,0.00
2019-02-28T01:15:53.521Z,0.00
2019-02-28T01:16:53.698Z,0.00
2019-02-28T01:17:53.502Z,0.00
2019-02-28T01:18:53.503Z,0.00
2019-02-28T01:19:53.452Z,0.00
2019-02-28T01:20:53.449Z,0.00
2019-02-28T01:21:55.371Z,0.00
2019-02-28T01:22:53.414Z,0.00
2019-02-28T01:23:53.382Z,0.00
2019-02-28T01:24:53.389Z,0.00
2019-02-28T01:25:53.365Z,0.00
2019-02-28T01:26:53.337Z,0.00
2019-02-28T01:27:53.324Z,0.00
2019-02-28T01:28:53.300Z,0.00
2019-02-28T01:29:53.290Z,0.00
2019-02-28T01:30:53.274Z,0.00
2019-02-28T01:31:53.249Z,0.00
2019-02-28T01:32:53.241Z,0.00
2019-02-28T01:33:56.039Z,0.00
2019-02-28T01:34:53.222Z,0.00
2019-02-28T01:35:53.191Z,0.00
2019-02-28T01:36:53.206Z,0.00
2019-02-28T01:37:53.162Z,0.00
2019-02-28T01:38:57.777Z,0.00
2019-02-28T01:39:53.116Z,0.00
2019-02-28T01:40:53.097Z,0.00
2019-02-28T01:41:53.151Z,0.00
2019-02-28T01:42:54.842Z,0.00
2019-02-28T01:43:53.049Z,0.00
2019-02-28T01:44:53.042Z,0.00
2019-02-28T01:45:53.012Z,0.00
2019-02-28T01:46:52.996Z,0.00
2019-02-28T01:47:53.003Z,0.00
2019-02-28T01:48:54.520Z,0.00
2019-02-28T01:49:52.949Z,0.00
2019-02-28T01:50:52.927Z,0.00
2019-02-28T01:51:52.901Z,0.00
2019-02-28T01:52:52.893Z,0.00
2019-02-28T01:53:53.626Z,0.00
2019-02-28T01:54:52.862Z,0.00
2019-02-28T01:55:52.843Z,0.00
2019-02-28T01:56:52.820Z,0.00
2019-02-28T01:57:52.800Z,0.00
2019-02-28T01:58:52.795Z,0.00
2019-02-28T01:59:53.089Z,0.00
2019-02-28T02:00:53.697Z,0.00
2019-02-28T02:01:52.742Z,0.00
2019-02-28T02:02:52.720Z,0.00
2019-02-28T02:03:52.743Z,0.00
2019-02-28T02:04:52.690Z,0.00
2019-02-28T02:05:52.664Z,0.00
2019-02-28T02:06:52.647Z,0.00
2019-02-28T02:07:52.638Z,0.00
2019-02-28T02:08:52.647Z,0.00
2019-02-28T02:09:52.657Z,0.00
2019-02-28T02:10:55.854Z,0.00
2019-02-28T02:11:52.558Z,0.00
2019-02-28T02:12:52.559Z,0.00
2019-02-28T02:13:52.535Z,0.00
2019-02-28T02:14:52.510Z,0.00
2019-02-28T02:15:52.509Z,0.00
2019-02-28T02:16:52.509Z,0.00
2019-02-28T02:17:52.453Z,0.00
2019-02-28T02:18:52.450Z,0.00
2019-02-28T02:19:52.802Z,0.00
2019-02-28T02:20:52.399Z,0.00
2019-02-28T02:21:52.411Z,0.00
2019-02-28T02:22:52.370Z,0.00
2019-02-28T02:23:52.989Z,0.00
2019-02-28T02:24:52.329Z,0.00
2019-02-28T02:25:52.363Z,0.00
2019-02-28T02:26:52.364Z,0.00
2019-02-28T02:27:53.341Z,0.00
2019-02-28T02:28:52.277Z,0.00
2019-02-28T02:29:52.246Z,0.00
2019-02-28T02:30:52.309Z,0.00
2019-02-28T02:31:52.228Z,0.00
2019-02-28T02:32:52.221Z,0.00
2019-02-28T02:33:52.734Z,0.00
2019-02-28T02:34:52.165Z,0.00
2019-02-28T02:35:52.175Z,0.00
2019-02-28T02:36:54.306Z,0.00
2019-02-28T02:37:52.131Z,0.00
2019-02-28T02:38:52.102Z,0.00
2019-02-28T02:39:52.084Z,0.00
2019-02-28T02:40:59.228Z,0.00
2019-02-28T02:41:52.037Z,0.00
2019-02-28T02:42:52.073Z,0.00
2019-02-28T02:43:55.023Z,0.00
2019-02-28T02:44:51.991Z,0.00
2019-02-28T02:45:51.979Z,0.00
2019-02-28T02:46:55.261Z,0.00
2019-02-28T02:47:51.939Z,0.00
2019-02-28T02:48:51.930Z,0.00
2019-02-28T02:49:56.474Z,0.00
2019-02-28T02:50:51.878Z,0.00
2019-02-28T02:51:51.873Z,0.00
2019-02-28T02:52:51.863Z,0.00
2019-02-28T02:53:51.857Z,0.00
2019-02-28T02:54:52.890Z,0.00
2019-02-28T02:55:51.795Z,0.00
2019-02-28T02:56:51.788Z,0.00
2019-02-28T02:57:51.988Z,0.00
2019-02-28T02:58:51.739Z,0.00
2019-02-28T02:59:51.761Z,0.00
2019-02-28T03:00:51.717Z,0.00
2019-02-28T03:01:56.207Z,0.00
2019-02-28T03:02:51.676Z,0.00
2019-02-28T03:03:51.696Z,0.00
2019-02-28T03:04:57.846Z,0.00
2019-02-28T03:05:51.623Z,0.00
2019-02-28T03:06:51.605Z,0.00
2019-02-28T03:07:51.593Z,0.00
2019-02-28T03:08:51.583Z,0.00
2019-02-28T03:09:51.572Z,0.00
2019-02-28T03:10:53.019Z,0.00
2019-02-28T03:11:51.514Z,0.00
2019-02-28T03:12:51.518Z,0.00
2019-02-28T03:13:51.525Z,0.00
2019-02-28T03:14:51.479Z,0.00
2019-02-28T03:15:51.458Z,0.00
2019-02-28T03:16:51.437Z,0.00
2019-02-28T03:17:51.415Z,0.00
2019-02-28T03:18:56.790Z,0.00
2019-02-28T03:19:51.383Z,0.00
2019-02-28T03:20:51.422Z,0.00
2019-02-28T03:21:52.871Z,0.00
2019-02-28T03:22:51.324Z,0.00
2019-02-28T03:23:51.319Z,0.00
2019-02-28T03:24:52.285Z,0.00
2019-02-28T03:25:51.267Z,0.00
2019-02-28T03:26:51.316Z,0.00
2019-02-28T03:27:55.382Z,0.00
2019-02-28T03:28:51.227Z,0.00
2019-02-28T03:29:51.215Z,0.00
2019-02-28T03:30:51.195Z,0.00
2019-02-28T03:31:56.494Z,0.00
2019-02-28T03:32:51.177Z,0.00
2019-02-28T03:33:51.129Z,0.00
2019-02-28T03:34:58.154Z,0.00
2019-02-28T03:35:51.090Z,0.00
2019-02-28T03:36:55.742Z,0.00
2019-02-28T03:37:51.064Z,0.00
2019-02-28T03:38:51.043Z,0.00
2019-02-28T03:39:51.037Z,0.00
2019-02-28T03:40:50.996Z,0.00
2019-02-28T03:41:52.882Z,0.00
2019-02-28T03:42:50.995Z,0.00
2019-02-28T03:43:50.949Z,0.00
2019-02-28T03:44:56.701Z,0.00
2019-02-28T03:45:50.916Z,0.00
2019-02-28T03:46:50.894Z,0.00
2019-02-28T03:47:50.907Z,0.00
2019-02-28T03:48:50.881Z,0.00
2019-02-28T03:49:50.847Z,0.00
2019-02-28T03:50:55.201Z,0.00
2019-02-28T03:51:50.803Z,0.00
2019-02-28T03:52:50.794Z,0.00
2019-02-28T03:53:55.569Z,0.00
2019-02-28T03:54:50.763Z,0.00
2019-02-28T03:55:50.757Z,0.00
2019-02-28T03:56:52.785Z,0.00
2019-02-28T03:57:50.704Z,0.00
2019-02-28T03:58:50.717Z,0.00
2019-02-28T03:59:55.378Z,0.00
2019-02-28T04:00:50.662Z,0.00
2019-02-28T04:01:50.626Z,0.00
2019-02-28T04:02:56.995Z,0.00
2019-02-28T04:03:50.595Z,0.00
2019-02-28T04:04:50.599Z,0.00
2019-02-28T04:05:50.579Z,0.00
2019-02-28T04:06:50.532Z,0.00
2019-02-28T04:07:53.439Z,0.00
2019-02-28T04:08:50.520Z,0.00
2019-02-28T04:09:50.490Z,0.00
2019-02-28T04:10:54.765Z,0.00
2019-02-28T04:11:50.483Z,0.00
2019-02-28T04:12:50.432Z,0.00
2019-02-28T04:13:52.491Z,0.00
2019-02-28T04:14:50.389Z,0.00
2019-02-28T04:16:07.649Z,0.00
2019-02-28T04:16:54.102Z,0.00
2019-02-28T04:17:50.337Z,0.00
2019-02-28T04:18:50.341Z,0.00
2019-02-28T04:19:54.865Z,0.00
2019-02-28T04:20:50.289Z,0.00
2019-02-28T04:21:50.263Z,0.00
2019-02-28T04:22:50.284Z,0.00
2019-02-28T04:23:50.230Z,0.00
2019-02-28T04:24:50.224Z,0.00
2019-02-28T04:25:50.202Z,0.00
2019-02-28T04:26:50.185Z,0.00
2019-02-28T04:27:50.212Z,0.00
2019-02-28T04:28:53.677Z,0.00
2019-02-28T04:29:50.126Z,0.00
2019-02-28T04:30:50.101Z,0.00
2019-02-28T04:31:51.351Z,0.00
2019-02-28T04:32:50.108Z,0.00
2019-02-28T04:33:50.041Z,0.00
2019-02-28T04:34:50.046Z,0.00
2019-02-28T04:35:50.006Z,0.00
2019-02-28T04:36:49.998Z,0.00
2019-02-28T04:37:50.108Z,0.00
2019-02-28T04:38:51.743Z,0.00
2019-02-28T04:39:49.947Z,0.00
2019-02-28T04:40:49.925Z,0.00
2019-02-28T04:41:49.907Z,0.00
2019-02-28T04:42:49.895Z,0.00
2019-02-28T04:43:49.868Z,0.00
2019-02-28T04:44:51.959Z,0.00
2019-02-28T04:45:49.835Z,0.00
2019-02-28T04:46:49.822Z,0.00
2019-02-28T04:47:49.790Z,0.00
2019-02-28T04:48:49.785Z,0.00
2019-02-28T04:49:49.769Z,0.00
2019-02-28T04:50:49.743Z,0.00
2019-02-28T04:51:49.759Z,0.00
2019-02-28T04:52:49.701Z,0.00
2019-02-28T04:53:52.787Z,0.00
2019-02-28T04:54:49.665Z,0.00
2019-02-28T04:55:49.642Z,0.00
2019-02-28T04:56:49.632Z,0.00
2019-02-28T04:57:51.660Z,0.00
2019-02-28T04:58:49.593Z,0.00
2019-02-28T04:59:49.603Z,0.00
2019-02-28T05:00:49.562Z,0.00
2019-02-28T05:01:49.529Z,0.00
2019-02-28T05:02:53.838Z,0.00
2019-02-28T05:03:49.540Z,0.00
2019-02-28T05:04:49.482Z,0.00
2019-02-28T05:05:49.468Z,0.00
2019-02-28T05:06:52.153Z,0.00
2019-02-28T05:07:49.486Z,0.00
2019-02-28T05:08:49.406Z,0.00
2019-02-28T05:09:49.405Z,0.00
2019-02-28T05:10:49.383Z,0.00
2019-02-28T05:11:49.369Z,0.00
2019-02-28T05:12:49.333Z,0.00
2019-02-28T05:13:49.419Z,0.00
2019-02-28T05:14:49.308Z,0.00
2019-02-28T05:15:49.318Z,0.00
2019-02-28T05:16:49.298Z,0.00
2019-02-28T05:17:49.240Z,0.00
2019-02-28T05:18:49.238Z,0.00
2019-02-28T05:19:49.210Z,0.00
2019-02-28T05:20:49.201Z,0.00
2019-02-28T05:21:50.583Z,0.00
2019-02-28T05:22:49.155Z,0.00
2019-02-28T05:23:49.158Z,0.00
2019-02-28T05:24:49.131Z,0.00
2019-02-28T05:25:52.120Z,0.00
2019-02-28T05:26:49.123Z,0.00
2019-02-28T05:27:49.065Z,0.00
2019-02-28T05:28:49.041Z,0.00
2019-02-28T05:29:49.034Z,0.00
2019-02-28T05:30:50.189Z,0.00
2019-02-28T05:31:49.029Z,0.00
2019-02-28T05:32:48.972Z,0.00
2019-02-28T05:33:48.962Z,0.00
2019-02-28T05:34:51.014Z,0.00
2019-02-28T05:35:48.927Z,0.00
2019-02-28T05:36:48.924Z,0.00
2019-02-28T05:37:48.890Z,0.00
2019-02-28T05:38:48.865Z,0.00
2019-02-28T05:39:48.856Z,0.00
2019-02-28T05:40:48.834Z,0.00
2019-02-28T05:41:49.537Z,0.00
2019-02-28T05:42:48.788Z,0.00
2019-02-28T05:43:48.785Z,0.00
2019-02-28T05:44:48.758Z,4.00
2019-02-28T05:45:49.509Z,0.00
2019-02-28T05:46:48.751Z,4.00
2019-02-28T05:47:48.710Z,0.00
2019-02-28T05:48:48.723Z,4.00
2019-02-28T05:49:48.658Z,4.00
2019-02-28T05:50:53.019Z,4.00
2019-02-28T05:51:48.666Z,4.00
2019-02-28T05:52:48.611Z,8.00
2019-02-28T05:53:48.645Z,12.00
2019-02-28T05:54:50.383Z,12.00
2019-02-28T05:55:48.559Z,12.00
2019-02-28T05:56:48.532Z,16.00
2019-02-28T05:57:48.516Z,20.00
2019-02-28T05:58:49.318Z,24.00
2019-02-28T05:59:48.510Z,28.00
2019-02-28T06:00:48.471Z,28.00
2019-02-28T06:01:48.446Z,36.00
2019-02-28T06:02:48.444Z,44.00
2019-02-28T06:03:48.477Z,48.00
2019-02-28T06:04:48.392Z,56.00
2019-02-28T06:05:48.384Z,68.00
2019-02-28T06:06:51.303Z,72.00
2019-02-28T06:07:48.333Z,84.00
2019-02-28T06:08:48.327Z,96.00
2019-02-28T06:09:48.690Z,104.00
2019-02-28T06:10:48.285Z,120.00
2019-02-28T06:11:48.263Z,132.00
2019-02-28T06:12:48.252Z,152.00
2019-02-28T06:13:49.658Z,164.00
2019-02-28T06:14:48.222Z,184.00
2019-02-28T06:15:48.263Z,200.00
2019-02-28T06:16:48.184Z,220.00
2019-02-28T06:17:48.148Z,240.00
2019-02-28T06:18:48.141Z,260.00
2019-02-28T06:19:48.123Z,284.00
2019-02-28T06:20:50.972Z,304.00
2019-02-28T06:21:48.118Z,328.00
2019-02-28T06:22:48.064Z,352.00
2019-02-28T06:23:48.045Z,376.00
2019-02-28T06:24:48.021Z,400.00
2019-02-28T06:25:48.066Z,428.00
2019-02-28T06:26:47.994Z,452.00
2019-02-28T06:27:50.261Z,480.00
2019-02-28T06:28:47.948Z,508.00
2019-02-28T06:29:47.935Z,536.00
2019-02-28T06:30:47.914Z,568.00
2019-02-28T06:31:48.614Z,596.00
2019-02-28T06:32:47.876Z,624.00
2019-02-28T06:33:47.861Z,656.00
2019-02-28T06:34:47.845Z,688.00
2019-02-28T06:35:49.513Z,720.00
2019-02-28T06:36:47.812Z,752.00
2019-02-28T06:37:47.790Z,784.00
2019-02-28T06:38:47.799Z,812.00
2019-02-28T06:39:47.757Z,844.00
2019-02-28T06:40:47.742Z,880.00
2019-02-28T06:41:47.850Z,912.00
2019-02-28T06:42:47.778Z,944.00
2019-02-28T06:43:50.234Z,980.00
2019-02-28T06:44:47.664Z,1020.00
2019-02-28T06:45:47.638Z,1056.00
2019-02-28T06:46:47.616Z,1088.00
2019-02-28T06:47:49.617Z,1124.00
2019-02-28T06:48:47.582Z,1164.00
2019-02-28T06:49:47.565Z,1204.00
2019-02-28T06:50:47.556Z,1244.00
2019-02-28T06:51:48.449Z,1276.00
2019-02-28T06:52:47.539Z,1292.00
2019-02-28T06:53:47.489Z,1312.00
2019-02-28T06:54:47.480Z,1348.00
2019-02-28T06:55:47.454Z,1420.00
2019-02-28T06:56:47.490Z,1456.00
2019-02-28T06:57:47.450Z,1496.00
2019-02-28T06:58:47.406Z,1540.00
2019-02-28T06:59:47.380Z,1584.00
2019-02-28T07:00:48.414Z,1608.00
2019-02-28T07:01:47.373Z,1652.00
2019-02-28T07:02:47.356Z,1716.00
2019-02-28T07:03:53.563Z,1760.00
2019-02-28T07:04:49.524Z,1804.00
2019-02-28T07:05:47.270Z,1848.00
2019-02-28T07:06:47.265Z,1884.00
2019-02-28T07:07:49.142Z,1924.00
2019-02-28T07:08:47.250Z,1964.00
2019-02-28T07:09:47.212Z,2008.00
2019-02-28T07:10:48.412Z,2048.00
2019-02-28T07:11:47.164Z,2084.00
2019-02-28T07:12:47.178Z,2128.00
2019-02-28T07:13:47.164Z,2168.00
2019-02-28T07:14:49.284Z,2200.00
2019-02-28T07:15:47.088Z,2244.00
2019-02-28T07:16:47.083Z,2292.00
2019-02-28T07:17:47.609Z,2348.00
2019-02-28T07:18:47.086Z,2404.00
2019-02-28T07:19:47.014Z,2460.00
2019-02-28T07:20:47.260Z,2520.00
2019-02-28T07:21:46.985Z,2564.00
2019-02-28T07:22:46.972Z,2612.00
2019-02-28T07:23:46.953Z,2652.00
2019-02-28T07:24:46.930Z,2712.00
2019-02-28T07:25:47.355Z,2772.00
2019-02-28T07:26:48.270Z,2820.00
2019-02-28T07:27:46.868Z,2880.00
2019-02-28T07:28:46.858Z,2944.00
2019-02-28T07:29:46.840Z,2988.00
2019-02-28T07:30:50.291Z,3040.00
2019-02-28T07:31:46.845Z,3084.00
2019-02-28T07:32:46.804Z,3140.00
2019-02-28T07:33:46.765Z,3184.00
2019-02-28T07:34:46.758Z,3224.00
2019-02-28T07:35:46.725Z,3284.00
2019-02-28T07:36:46.757Z,3340.00
2019-02-28T07:37:46.684Z,3412.00
2019-02-28T07:38:46.673Z,3280.00
2019-02-28T07:39:46.663Z,3204.00
2019-02-28T07:40:49.593Z,3288.00
2019-02-28T07:41:46.680Z,3364.00
2019-02-28T07:42:46.613Z,3472.00
2019-02-28T07:43:46.952Z,3500.00
2019-02-28T07:44:46.574Z,3580.00
2019-02-28T07:45:46.554Z,3632.00
2019-02-28T07:46:46.535Z,3524.00
2019-02-28T07:47:51.487Z,3468.00
2019-02-28T07:48:46.530Z,3464.00
2019-02-28T07:49:46.468Z,3796.00
2019-02-28T07:50:46.703Z,4004.00
2019-02-28T07:51:46.441Z,4052.00
2019-02-28T07:52:46.423Z,3968.00
2019-02-28T07:53:46.440Z,3900.00
2019-02-28T07:54:47.532Z,3848.00
2019-02-28T07:55:46.364Z,3960.00
2019-02-28T07:56:46.368Z,4156.00
2019-02-28T07:57:51.199Z,4444.00
2019-02-28T07:58:46.324Z,4284.00
2019-02-28T07:59:46.307Z,4296.00
2019-02-28T08:00:48.375Z,3924.00
2019-02-28T08:01:46.264Z,4184.00
2019-02-28T08:02:46.253Z,4316.00
2019-02-28T08:03:46.230Z,5424.00
2019-02-28T08:04:46.273Z,5096.00
2019-02-28T08:05:46.192Z,4800.00
2019-02-28T08:06:46.172Z,4852.00
2019-02-28T08:07:50.526Z,4676.00
2019-02-28T08:08:46.184Z,5016.00
2019-02-28T08:09:46.126Z,5040.00
2019-02-28T08:10:47.985Z,4944.00
2019-02-28T08:11:46.087Z,4804.00
2019-02-28T08:12:46.059Z,4856.00
2019-02-28T08:13:46.069Z,4952.00
2019-02-28T08:14:47.066Z,4576.00
2019-02-28T08:15:46.009Z,4548.00
2019-02-28T08:16:45.993Z,4636.00
2019-02-28T08:17:45.969Z,4836.00
2019-02-28T08:18:45.994Z,4760.00
2019-02-28T08:19:45.964Z,4968.00
2019-02-28T08:20:45.917Z,5308.00
2019-02-28T08:21:50.289Z,5180.00
2019-02-28T08:22:45.899Z,5220.00
2019-02-28T08:23:45.882Z,5152.00
2019-02-28T08:24:45.859Z,5112.00
2019-02-28T08:25:45.830Z,5212.00
2019-02-28T08:26:45.819Z,5024.00
2019-02-28T08:27:45.824Z,4476.00
2019-02-28T08:28:45.785Z,4328.00
2019-02-28T08:29:46.062Z,4328.00
2019-02-28T08:30:47.318Z,4876.00
2019-02-28T08:31:45.732Z,5408.00
2019-02-28T08:32:47.087Z,5536.00
2019-02-28T08:33:48.052Z,5620.00
2019-02-28T08:34:46.877Z,5556.00
2019-02-28T08:35:45.702Z,5548.00
2019-02-28T08:36:46.889Z,5540.00
2019-02-28T08:37:45.626Z,5588.00
2019-02-28T08:38:45.653Z,5604.00
2019-02-28T08:39:45.782Z,5576.00
2019-02-28T08:40:50.514Z,5548.00
2019-02-28T08:41:45.553Z,5536.00
2019-02-28T08:42:45.572Z,5520.00
2019-02-28T08:43:47.928Z,5500.00
2019-02-28T08:44:45.499Z,5508.00
2019-02-28T08:45:45.476Z,5588.00
2019-02-28T08:46:46.488Z,5672.00
2019-02-28T08:47:45.456Z,5620.00
2019-02-28T08:48:45.460Z,5684.00
2019-02-28T08:49:45.595Z,5772.00
2019-02-28T08:50:45.407Z,5916.00
2019-02-28T08:51:45.411Z,5992.00
2019-02-28T08:52:45.367Z,6056.00
2019-02-28T08:53:50.802Z,6064.00
2019-02-28T08:54:45.354Z,6124.00
2019-02-28T08:55:45.314Z,6096.00
2019-02-28T08:56:46.146Z,6100.00
2019-02-28T08:57:54.165Z,6148.00
2019-02-28T08:58:45.265Z,6224.00
2019-02-28T08:59:45.276Z,6324.00
2019-02-28T09:00:45.222Z,6388.00
2019-02-28T09:01:45.650Z,6460.00
2019-02-28T09:02:45.322Z,6524.00
2019-02-28T09:03:45.177Z,6576.00
2019-02-28T09:04:47.840Z,6660.00
2019-02-28T09:05:45.143Z,6628.00
2019-02-28T09:06:45.133Z,6728.00
2019-02-28T09:07:50.805Z,6592.00
2019-02-28T09:08:45.357Z,6848.00
2019-02-28T09:09:45.060Z,6840.00
2019-02-28T09:10:47.019Z,7368.00
2019-02-28T09:11:45.063Z,7408.00
2019-02-28T09:12:45.112Z,7172.00
2019-02-28T09:13:45.013Z,7544.00
2019-02-28T09:14:45.038Z,8160.00
2019-02-28T09:15:44.961Z,11580.00
2019-02-28T09:16:45.428Z,17632.00
2019-02-28T09:17:44.946Z,17600.00
2019-02-28T09:18:44.927Z,18432.00
2019-02-28T09:19:44.964Z,24608.00
2019-02-28T09:20:45.271Z,24032.00
2019-02-28T09:21:44.863Z,20640.00
2019-02-28T09:22:44.889Z,19968.00
2019-02-28T09:23:44.834Z,21152.00
2019-02-28T09:24:46.727Z,20480.00
2019-02-28T09:25:44.803Z,19776.00
2019-02-28T09:26:46.154Z,17664.00
2019-02-28T09:27:44.980Z,15168.00
2019-02-28T09:28:47.539Z,14496.00
2019-02-28T09:29:44.792Z,10168.00
2019-02-28T09:30:44.716Z,11644.00
2019-02-28T09:31:44.721Z,13668.00
2019-02-28T09:32:45.226Z,9940.00
2019-02-28T09:33:44.765Z,10892.00
2019-02-28T09:34:44.658Z,14720.00
2019-02-28T09:35:46.387Z,19424.00
2019-02-28T09:36:44.621Z,21952.00
2019-02-28T09:37:44.764Z,14240.00
2019-02-28T09:38:45.321Z,9300.00
2019-02-28T09:39:44.995Z,6048.00
2019-02-28T09:40:44.572Z,6648.00
2019-02-28T09:41:44.614Z,7824.00
2019-02-28T09:42:47.811Z,8540.00
2019-02-28T09:43:44.534Z,7776.00
2019-02-28T09:44:44.522Z,8152.00
2019-02-28T09:45:44.485Z,8708.00
2019-02-28T09:46:47.458Z,9032.00
2019-02-28T09:47:44.487Z,9044.00
2019-02-28T09:48:44.448Z,9104.00
2019-02-28T09:49:47.328Z,10552.00
2019-02-28T09:50:45.150Z,10396.00
2019-02-28T09:51:44.440Z,10848.00
2019-02-28T09:52:44.426Z,11224.00
2019-02-28T09:53:47.344Z,9840.00
2019-02-28T09:54:44.341Z,10020.00
2019-02-28T09:55:44.423Z,10476.00
2019-02-28T09:56:44.571Z,9960.00
2019-02-28T09:57:44.375Z,9992.00
2019-02-28T09:58:44.313Z,9256.00
2019-02-28T09:59:44.270Z,9708.00
2019-02-28T10:00:46.932Z,10244.00
2019-02-28T10:01:44.269Z,9256.00
2019-02-28T10:02:45.139Z,10504.00
2019-02-28T10:03:44.228Z,10004.00
2019-02-28T10:04:44.186Z,10052.00
2019-02-28T10:05:44.188Z,9448.00
2019-02-28T10:06:44.196Z,10052.00
2019-02-28T10:07:44.239Z,10404.00
2019-02-28T10:08:44.127Z,10244.00
2019-02-28T10:09:45.208Z,10652.00
2019-02-28T10:10:44.104Z,10204.00
2019-02-28T10:11:44.083Z,10512.00
2019-02-28T10:12:44.126Z,10460.00
2019-02-28T10:13:44.068Z,12148.00
2019-02-28T10:14:44.060Z,13080.00
2019-02-28T10:15:44.063Z,11672.00
2019-02-28T10:16:44.039Z,11904.00
2019-02-28T10:17:43.987Z,12220.00
2019-02-28T10:18:43.985Z,11832.00
2019-02-28T10:19:45.947Z,12284.00
2019-02-28T10:20:44.032Z,11884.00
2019-02-28T10:21:43.997Z,11456.00
2019-02-28T10:22:44.371Z,11996.00
2019-02-28T10:23:43.903Z,11364.00
2019-02-28T10:24:43.905Z,11240.00
2019-02-28T10:25:43.869Z,11384.00
2019-02-28T10:26:43.858Z,11696.00
2019-02-28T10:27:43.867Z,12068.00
2019-02-28T10:28:43.831Z,12740.00
2019-02-28T10:29:43.814Z,13148.00
2019-02-28T10:30:43.794Z,13440.00
2019-02-28T10:31:43.832Z,13740.00
2019-02-28T10:32:44.060Z,13564.00
2019-02-28T10:33:43.773Z,13404.00
2019-02-28T10:34:43.749Z,13292.00
2019-02-28T10:35:43.750Z,13476.00
2019-02-28T10:36:44.457Z,13448.00
2019-02-28T10:37:43.839Z,15316.00
2019-02-28T10:38:43.679Z,20448.00
2019-02-28T10:39:43.837Z,19808.00
2019-02-28T10:40:43.643Z,13372.00
2019-02-28T10:41:43.633Z,15936.00
2019-02-28T10:42:43.634Z,14940.00
2019-02-28T10:43:43.634Z,16288.00
2019-02-28T10:44:43.586Z,15392.00
2019-02-28T10:45:43.577Z,14032.00
2019-02-28T10:46:43.563Z,12440.00
2019-02-28T10:47:43.549Z,13252.00
2019-02-28T10:48:50.777Z,12664.00
2019-02-28T10:49:43.527Z,12204.00
2019-02-28T10:50:43.518Z,12064.00
2019-02-28T10:51:47.188Z,12472.00
2019-02-28T10:52:43.472Z,12680.00
2019-02-28T10:53:43.505Z,12848.00
2019-02-28T10:54:48.435Z,13600.00
2019-02-28T10:55:43.452Z,13216.00
2019-02-28T10:56:43.435Z,13280.00
2019-02-28T10:57:43.401Z,13056.00
2019-02-28T10:58:43.400Z,12164.00
2019-02-28T10:59:43.522Z,12024.00
2019-02-28T11:00:43.361Z,11884.00
2019-02-28T11:01:43.358Z,11580.00
2019-02-28T11:02:43.340Z,11044.00
2019-02-28T11:03:43.314Z,10920.00
2019-02-28T11:04:44.036Z,10776.00
2019-02-28T11:05:43.325Z,10904.00
2019-02-28T11:06:43.310Z,11060.00
2019-02-28T11:07:43.259Z,11120.00
2019-02-28T11:08:44.466Z,11404.00
2019-02-28T11:09:43.243Z,11408.00
2019-02-28T11:10:43.223Z,11964.00
2019-02-28T11:11:45.606Z,11628.00
2019-02-28T11:12:43.185Z,11792.00
2019-02-28T11:13:43.171Z,11616.00
2019-02-28T11:14:43.163Z,11504.00
2019-02-28T11:15:48.027Z,12048.00
2019-02-28T11:16:43.170Z,11552.00
2019-02-28T11:17:44.579Z,11660.00
2019-02-28T11:18:43.119Z,11732.00
2019-02-28T11:19:43.088Z,11928.00
2019-02-28T11:20:43.084Z,12324.00
2019-02-28T11:21:43.122Z,13324.00
2019-02-28T11:22:43.049Z,12508.00
2019-02-28T11:23:43.043Z,12368.00
2019-02-28T11:24:43.023Z,13556.00
2019-02-28T11:25:43.010Z,13180.00
2019-02-28T11:26:44.753Z,12400.00
2019-02-28T11:27:43.016Z,12308.00
2019-02-28T11:28:42.960Z,12288.00
2019-02-28T11:29:42.946Z,13004.00
2019-02-28T11:30:44.748Z,13848.00
2019-02-28T11:31:42.993Z,13580.00
2019-02-28T11:32:42.911Z,13848.00
2019-02-28T11:33:42.950Z,14208.00
2019-02-28T11:34:45.820Z,15296.00
2019-02-28T11:35:42.870Z,14888.00
2019-02-28T11:36:44.760Z,14012.00
2019-02-28T11:37:46.087Z,14880.00
2019-02-28T11:38:42.822Z,14748.00
2019-02-28T11:39:43.181Z,14116.00
2019-02-28T11:40:43.957Z,14156.00
2019-02-28T11:41:42.789Z,14464.00
2019-02-28T11:42:42.768Z,14772.00
2019-02-28T11:43:42.770Z,14572.00
2019-02-28T11:44:43.488Z,14412.00
2019-02-28T11:45:42.735Z,14016.00
2019-02-28T11:46:42.726Z,13848.00
2019-02-28T11:47:43.426Z,13412.00
2019-02-28T11:48:42.724Z,13692.00
2019-02-28T11:49:43.960Z,13680.00
2019-02-28T11:50:44.908Z,13940.00
2019-02-28T11:51:42.663Z,14940.00
2019-02-28T11:52:42.671Z,16032.00
2019-02-28T11:53:42.619Z,17120.00
2019-02-28T11:54:45.271Z,17440.00
2019-02-28T11:55:42.630Z,16416.00
2019-02-28T11:56:42.580Z,14804.00
2019-02-28T11:57:42.565Z,13376.00
2019-02-28T11:58:42.560Z,12812.00
2019-02-28T11:59:42.551Z,12776.00
2019-02-28T12:00:42.554Z,12944.00
2019-02-28T12:01:47.397Z,12968.00
2019-02-28T12:02:42.508Z,12936.00
2019-02-28T12:03:42.495Z,12704.00
2019-02-28T12:04:42.481Z,12500.00
2019-02-28T12:05:42.490Z,12816.00
2019-02-28T12:06:42.453Z,13320.00
2019-02-28T12:07:42.439Z,13576.00
2019-02-28T12:08:45.004Z,13504.00
2019-02-28T12:09:42.440Z,13664.00
2019-02-28T12:10:42.410Z,13368.00
2019-02-28T12:11:42.394Z,13548.00
2019-02-28T12:12:44.633Z,14568.00
2019-02-28T12:13:42.364Z,15872.00
2019-02-28T12:14:42.373Z,16032.00
2019-02-28T12:15:42.340Z,17216.00
2019-02-28T12:16:42.344Z,17472.00
2019-02-28T12:17:42.310Z,16704.00
2019-02-28T12:18:42.310Z,15584.00
2019-02-28T12:19:42.278Z,15680.00
2019-02-28T12:20:42.270Z,14720.00
2019-02-28T12:21:42.315Z,14660.00
2019-02-28T12:22:44.005Z,14060.00
2019-02-28T12:23:42.232Z,13932.00
2019-02-28T12:24:42.223Z,14208.00
2019-02-28T12:25:42.793Z,14192.00
2019-02-28T12:26:42.199Z,13532.00
2019-02-28T12:27:42.216Z,13788.00
2019-02-28T12:28:42.159Z,13608.00
2019-02-28T12:29:42.146Z,15264.00
2019-02-28T12:30:42.142Z,15776.00
2019-02-28T12:31:42.122Z,13760.00
2019-02-28T12:32:43.356Z,12504.00
2019-02-28T12:33:42.096Z,12264.00
2019-02-28T12:34:42.096Z,12172.00